Time;durP1;ratioP1;P1;durP2;ratioP2;P2;SDS_P1;SDS_P2;PMS_P1;PMS_P2;Temp;Humidity;BMP_temperature;BMP_pressure;BME280_temperature;BME280_humidity;BME280_pressure;Samples;Min_cycle;Max_cycle;Signal;HPM_P1;HPM_P2
2023/04/04 00:02:13;;;;;;;2.53;1.90;;;;;;;1.50;68.47;102881.25;5052199;28;20025;-80
2023/04/04 00:04:38;;;;;;;2.53;1.98;;;;;;;1.48;69.11;102885.41;5051470;28;20446;-80
2023/04/04 00:07:03;;;;;;;4.30;2.22;;;;;;;1.44;69.41;102883.50;5052444;28;20063;-81
2023/04/04 00:09:29;;;;;;;6.80;2.92;;;;;;;1.32;71.60;102889.69;5052306;28;20500;-81
2023/04/04 00:11:58;;;;;;;9.55;3.53;;;;;;;1.23;71.78;102891.75;5051495;28;20048;-81
2023/04/04 00:14:23;;;;;;;9.02;3.78;;;;;;;1.19;71.74;102888.09;5052202;28;20052;-80
2023/04/04 00:16:48;;;;;;;11.40;3.80;;;;;;;1.19;71.80;102894.91;5052290;28;20033;-81
2023/04/04 00:19:16;;;;;;;7.03;3.58;;;;;;;1.17;72.48;102888.81;5051632;28;20025;-80
2023/04/04 00:21:44;;;;;;;6.75;3.20;;;;;;;1.20;71.69;102894.13;5052286;28;20025;-81
2023/04/04 00:24:09;;;;;;;5.57;2.90;;;;;;;1.18;72.14;102893.13;5072786;22;20106;-80
2023/04/04 00:26:34;;;;;;;6.47;3.20;;;;;;;1.14;72.13;102886.97;5071302;28;20431;-81
2023/04/04 00:29:00;;;;;;;6.30;3.03;;;;;;;1.14;71.72;102889.53;5055210;28;20029;-81
2023/04/04 00:31:26;;;;;;;6.35;2.80;;;;;;;1.15;71.70;102892.97;5051856;28;20029;-80
2023/04/04 00:33:51;;;;;;;7.30;3.20;;;;;;;1.14;71.45;102891.19;5051395;28;20104;-80
2023/04/04 00:36:17;;;;;;;8.27;3.30;;;;;;;1.11;72.08;102893.59;5052311;28;20311;-81
2023/04/04 00:38:45;;;;;;;5.88;3.20;;;;;;;1.10;71.95;102891.84;5051936;28;20037;-81
2023/04/04 00:41:11;;;;;;;5.90;2.97;;;;;;;1.02;71.79;102887.16;5053008;28;20017;-81
2023/04/04 00:43:37;;;;;;;9.40;3.60;;;;;;;1.02;71.86;102888.84;5055640;28;20031;-80
2023/04/04 00:46:02;;;;;;;11.63;3.50;;;;;;;1.01;72.28;102893.09;5070879;28;20044;-80
2023/04/04 00:48:28;;;;;;;9.23;3.47;;;;;;;0.99;71.95;102894.66;5076007;28;20042;-80
2023/04/04 00:50:54;;;;;;;11.05;3.40;;;;;;;1.00;72.12;102901.53;5075355;28;20116;-80
2023/04/04 00:53:19;;;;;;;5.00;3.00;;;;;;;1.01;72.04;102890.53;5074920;28;20029;-80
2023/04/04 00:55:45;;;;;;;6.15;2.80;;;;;;;0.99;72.37;102896.31;5075232;28;20024;-80
2023/04/04 00:58:10;;;;;;;6.38;2.90;;;;;;;0.96;71.93;102894.47;5075601;28;20031;-80
2023/04/04 01:00:36;;;;;;;7.95;3.03;;;;;;;0.93;72.10;102894.28;5074415;28;20527;-80
2023/04/04 01:03:04;;;;;;;6.35;3.00;;;;;;;0.93;71.53;102896.84;5075488;28;20028;-81
2023/04/04 01:05:30;;;;;;;6.47;2.80;;;;;;;0.93;72.60;102899.41;5075737;28;20020;-80
2023/04/04 01:07:56;;;;;;;5.70;2.78;;;;;;;0.91;72.59;102898.44;5074739;28;20119;-80
2023/04/04 01:10:21;;;;;;;6.32;2.90;;;;;;;0.89;72.83;102894.94;5075403;28;20044;-80
2023/04/04 01:12:47;;;;;;;5.80;2.85;;;;;;;0.83;73.12;102881.78;5054663;28;20499;-80
2023/04/04 01:15:12;;;;;;;4.22;2.55;;;;;;;0.87;72.42;102882.03;5054151;28;20092;-81
2023/04/04 01:17:41;;;;;;;4.97;2.65;;;;;;;0.82;73.20;102878.34;5054428;28;20025;-80
2023/04/04 01:20:29;;;;;;;3.30;2.20;;;;;;;0.80;71.93;102872.25;5054929;28;20108;-80
2023/04/04 01:22:55;;;;;;;2.72;2.10;;;;;;;0.79;72.19;102867.06;5053985;28;20186;-80
2023/04/04 01:25:30;;;;;;;3.83;2.33;;;;;;;0.80;71.78;102869.72;5054932;28;20029;-80
2023/04/04 01:27:57;;;;;;;2.95;2.00;;;;;;;0.80;71.63;102866.25;5054905;28;20033;-80
2023/04/04 01:30:24;;;;;;;5.32;2.40;;;;;;;0.76;72.34;102858.44;5055157;28;20480;-80
2023/04/04 01:33:10;;;;;;;5.22;2.50;;;;;;;0.74;72.90;102869.34;5055758;28;20052;-80
2023/04/04 01:35:51;;;;;;;6.60;2.63;;;;;;;0.67;73.81;102865.56;5054863;28;20033;-80
2023/04/04 01:38:25;;;;;;;4.90;2.50;;;;;;;0.68;72.93;102874.09;5055211;28;20021;-80
2023/04/04 01:41:01;;;;;;;4.20;2.25;;;;;;;0.63;73.40;102866.19;5054899;28;20033;-81
2023/04/04 01:43:26;;;;;;;5.53;2.50;;;;;;;0.59;74.79;102864.22;5053954;28;20094;-80
2023/04/04 01:45:52;;;;;;;6.05;2.75;;;;;;;0.54;74.12;102861.41;5055058;28;20033;-80
2023/04/04 01:48:17;;;;;;;5.65;2.90;;;;;;;0.49;74.11;102860.28;5054483;28;20033;-81
2023/04/04 01:50:42;;;;;;;6.57;2.70;;;;;;;0.46;73.56;102863.50;5053747;28;20056;-81
2023/04/04 01:53:07;;;;;;;6.65;2.75;;;;;;;0.51;73.30;102860.34;5054379;28;20033;-80
2023/04/04 01:55:33;;;;;;;3.80;2.50;;;;;;;0.49;74.68;102862.81;5054121;28;20389;-80
2023/04/04 01:57:58;;;;;;;4.13;2.50;;;;;;;0.46;74.78;102865.19;5053427;28;20029;-80
2023/04/04 02:00:23;;;;;;;5.00;2.40;;;;;;;0.40;73.83;102859.69;5054109;28;20380;-80
2023/04/04 02:02:49;;;;;;;3.80;2.40;;;;;;;0.38;74.86;102849.41;5054414;28;20036;-80
2023/04/04 02:05:15;;;;;;;5.05;2.63;;;;;;;0.37;75.38;102855.28;5053632;28;20032;-80
2023/04/04 02:07:40;;;;;;;3.33;2.40;;;;;;;0.35;74.35;102856.00;5053850;28;20134;-80
2023/04/04 02:10:09;;;;;;;6.32;2.58;;;;;;;0.30;75.93;102856.59;5053991;28;20033;-80
2023/04/04 02:12:34;;;;;;;6.15;3.10;;;;;;;0.27;75.29;102860.66;5053480;28;20040;-80
2023/04/04 02:15:00;;;;;;;6.50;2.70;;;;;;;0.25;76.16;102862.22;5054279;28;20403;-80
2023/04/04 02:17:27;;;;;;;5.88;3.28;;;;;;;0.15;76.36;102866.78;5053231;28;20056;-80
2023/04/04 02:19:52;;;;;;;7.80;3.55;;;;;;;0.17;76.12;102871.09;5054157;28;20376;-80
2023/04/04 02:22:17;;;;;;;9.38;3.50;;;;;;;0.13;76.65;102864.94;5053850;28;20120;-80
2023/04/04 02:24:45;;;;;;;10.85;3.70;;;;;;;0.11;76.74;102867.38;5052789;28;20041;-80
2023/04/04 02:27:10;;;;;;;7.88;3.53;;;;;;;0.12;76.37;102870.84;5053440;28;20469;-81
2023/04/04 02:29:36;;;;;;;7.30;3.30;;;;;;;0.07;77.11;102877.31;5053842;28;20028;-81
2023/04/04 02:32:01;;;;;;;10.13;4.00;;;;;;;0.02;77.08;102879.59;5053193;28;20021;-80
2023/04/04 02:34:27;;;;;;;10.55;3.88;;;;;;;0.01;77.08;102882.94;5053488;28;20039;-81
2023/04/04 02:36:56;;;;;;;9.13;3.70;;;;;;;-0.01;76.82;102879.44;5054104;28;20025;-81
2023/04/04 02:39:21;;;;;;;7.88;3.42;;;;;;;0.03;77.83;102885.59;5053045;28;20021;-80
2023/04/04 02:41:47;;;;;;;9.07;3.60;;;;;;;0.02;77.53;102882.16;5053887;28;20028;-80
2023/04/04 02:44:12;;;;;;;5.15;3.15;;;;;;;0.03;76.80;102876.25;5053520;28;20033;-81
2023/04/04 02:46:37;;;;;;;9.07;3.53;;;;;;;-0.03;77.38;102878.44;5052636;28;20059;-80
2023/04/04 02:49:03;;;;;;;7.43;3.67;;;;;;;-0.03;77.28;102875.91;5053521;28;20035;-80
2023/04/04 02:51:28;;;;;;;9.52;3.70;;;;;;;-0.04;76.87;102861.38;5053578;28;20461;-80
2023/04/04 02:53:53;;;;;;;8.05;3.40;;;;;;;0.02;76.62;102868.53;5052816;28;20158;-80
2023/04/04 02:56:19;;;;;;;11.02;3.95;;;;;;;0.00;77.01;102865.88;5059566;28;20051;-81
2023/04/04 02:58:44;;;;;;;7.13;3.72;;;;;;;0.00;76.79;102865.88;5072695;28;20036;-80
2023/04/04 03:01:10;;;;;;;9.38;4.07;;;;;;;-0.07;76.56;102859.53;5072527;28;20017;-80
2023/04/04 03:03:37;;;;;;;7.93;3.75;;;;;;;-0.06;77.00;102857.84;5072566;28;20170;-80
2023/04/04 03:06:03;;;;;;;8.75;3.90;;;;;;;-0.06;76.93;102868.03;5073021;28;20029;-80
2023/04/04 03:08:28;;;;;;;8.70;4.15;;;;;;;-0.07;77.34;102866.28;5071757;28;20426;-80
2023/04/04 03:10:53;;;;;;;9.95;4.10;;;;;;;-0.10;76.90;102860.97;5073233;28;20529;-80
2023/04/04 03:13:19;;;;;;;8.85;3.75;;;;;;;-0.10;76.90;102859.31;5073151;28;20317;-80
2023/04/04 03:15:44;;;;;;;10.63;4.20;;;;;;;-0.13;76.98;102865.91;5072104;28;20027;-81
2023/04/04 03:18:09;;;;;;;9.98;3.90;;;;;;;-0.12;77.22;102867.69;5073010;28;20139;-80
2023/04/04 03:20:35;;;;;;;7.55;3.63;;;;;;;-0.11;76.96;102865.22;5071830;28;20028;-80
2023/04/04 03:23:00;;;;;;;6.32;3.55;;;;;;;-0.13;77.33;102861.69;5072874;28;20048;-80
2023/04/04 03:25:25;;;;;;;11.48;3.80;;;;;;;-0.18;77.54;102861.41;5062205;28;20037;-80
2023/04/04 03:27:51;;;;;;;9.18;3.97;;;;;;;-0.17;77.26;102865.72;5051333;28;20033;-80
2023/04/04 03:30:16;;;;;;;10.73;4.03;;;;;;;-0.17;77.40;102872.50;5052877;28;20028;-80
2023/04/04 03:32:41;;;;;;;7.78;3.55;;;;;;;-0.17;77.33;102870.81;5052586;28;20036;-80
2023/04/04 03:35:07;;;;;;;7.38;3.50;;;;;;;-0.21;77.24;102857.78;5051707;28;20112;-80
2023/04/04 03:37:35;;;;;;;7.30;3.35;;;;;;;-0.22;77.71;102846.69;5052587;28;20469;-80
2023/04/04 03:40:01;;;;;;;6.35;3.33;;;;;;;-0.29;77.97;102847.09;5052875;28;20078;-80
2023/04/04 03:42:26;;;;;;;8.02;3.50;;;;;;;-0.29;77.52;102852.19;5051778;28;20412;-80
2023/04/04 03:44:55;;;;;;;7.82;3.40;;;;;;;-0.28;77.22;102850.56;5052760;28;20017;-81
2023/04/04 03:47:20;;;;;;;7.40;3.20;;;;;;;-0.31;77.59;102846.13;5052888;28;20056;-80
2023/04/04 03:49:45;;;;;;;5.07;2.80;;;;;;;-0.29;77.72;102847.09;5051876;28;20049;-81
2023/04/04 03:52:10;;;;;;;9.07;3.33;;;;;;;-0.33;77.86;102835.81;5052495;28;20051;-81
2023/04/04 03:54:36;;;;;;;4.47;2.80;;;;;;;-0.35;76.83;102836.53;5052409;28;20017;-80
2023/04/04 03:57:02;;;;;;;7.03;3.25;;;;;;;-0.42;78.42;102836.91;5051980;28;20029;-80
2023/04/04 03:59:34;;;;;;;6.22;3.20;;;;;;;-0.47;79.02;102826.44;5052282;28;20029;-80
2023/04/04 04:01:59;;;;;;;6.43;3.38;;;;;;;-0.50;79.38;102832.22;5052508;28;20040;-80
2023/04/04 04:04:24;;;;;;;7.25;3.42;;;;;;;-0.54;79.79;102835.38;5051493;28;20029;-81
2023/04/04 04:06:50;;;;;;;6.72;3.20;;;;;;;-0.58;79.73;102841.06;5052342;28;20025;-80
2023/04/04 04:09:15;;;;;;;7.30;3.58;;;;;;;-0.59;79.32;102841.88;5052319;28;20060;-81
2023/04/04 04:11:41;;;;;;;6.18;3.70;;;;;;;-0.59;79.12;102849.50;5051189;28;20112;-80
2023/04/04 04:14:06;;;;;;;9.20;3.60;;;;;;;-0.61;79.74;102845.97;5052422;28;20033;-80
2023/04/04 04:16:32;;;;;;;7.55;3.38;;;;;;;-0.62;78.97;102839.09;5054456;28;20433;-81
2023/04/04 04:18:57;;;;;;;5.38;2.90;;;;;;;-0.62;78.72;102842.53;5055856;28;20036;-80
2023/04/04 04:21:23;;;;;;;4.88;2.85;;;;;;;-0.66;78.74;102838.03;5056040;28;20575;-80
2023/04/04 04:23:48;;;;;;;5.45;3.33;;;;;;;-0.68;79.27;102831.94;5056145;28;20076;-80
2023/04/04 04:26:13;;;;;;;7.07;3.17;;;;;;;-0.67;79.88;102836.28;5054772;28;20032;-80
2023/04/04 04:28:38;;;;;;;3.92;2.65;;;;;;;-0.69;79.17;102836.97;5055840;28;20036;-81
2023/04/04 04:31:07;;;;;;;3.60;2.50;;;;;;;-0.70;78.39;102832.66;5055563;28;20388;-80
2023/04/04 04:33:33;;;;;;;3.35;2.30;;;;;;;-0.67;77.96;102841.38;5055736;28;20432;-80
2023/04/04 04:36:00;;;;;;;5.82;2.58;;;;;;;-0.71;78.87;102833.44;5055913;28;20025;-80
2023/04/04 04:38:29;;;;;;;3.08;2.30;;;;;;;-0.72;79.19;102840.19;5055223;28;20052;-80
2023/04/04 04:40:55;;;;;;;4.30;2.30;;;;;;;-0.78;79.72;102838.13;5056014;28;20435;-80
2023/04/04 04:43:23;;;;;;;4.97;2.60;;;;;;;-0.80;80.20;102834.63;5055966;28;20099;-80
2023/04/04 04:45:49;;;;;;;4.10;2.70;;;;;;;-0.83;80.68;102831.88;5054960;28;20087;-80
2023/04/04 04:50:42;;;;;;;3.67;2.60;;;;;;;-0.85;79.29;102840.22;5097536;23;20446;-80
2023/04/04 04:53:11;;;;;;;5.00;3.05;;;;;;;-0.93;79.93;102842.28;5095190;28;20273;-80
2023/04/04 04:55:39;;;;;;;5.25;2.90;;;;;;;-0.90;80.26;102839.88;5095372;28;20534;-81
2023/04/04 04:58:05;;;;;;;4.65;2.88;;;;;;;-0.91;81.41;102857.66;5095968;28;20398;-80
2023/04/04 05:00:31;;;;;;;6.47;3.47;;;;;;;-0.88;80.13;102853.63;5094982;28;20491;-81
2023/04/04 05:02:57;;;;;;;7.28;3.60;;;;;;;-0.88;81.01;102866.38;5095740;28;20479;-80
2023/04/04 05:05:22;;;;;;;9.55;4.45;;;;;;;-0.86;81.09;102866.50;5095838;28;20043;-80
2023/04/04 05:07:48;;;;;;;8.23;3.92;;;;;;;-0.87;79.91;102862.16;5095153;28;20429;-81
2023/04/04 05:10:14;;;;;;;5.47;3.60;;;;;;;-0.81;79.59;102872.75;5095391;28;20043;-81
2023/04/04 05:12:45;;;;;;;5.77;3.27;;;;;;;-0.79;79.13;102873.75;5095298;28;20024;-81
2023/04/04 05:15:11;;;;;;;6.30;3.20;;;;;;;-0.82;79.16;102865.88;5094911;28;20078;-80
2023/04/04 05:17:37;;;;;;;4.78;2.80;;;;;;;-0.80;78.72;102867.78;5095687;28;20024;-81
2023/04/04 05:20:03;;;;;;;5.63;2.73;;;;;;;-0.81;78.90;102867.66;5095746;28;20402;-81
2023/04/04 05:22:29;;;;;;;3.33;2.40;;;;;;;-0.79;78.65;102866.97;5094674;28;20049;-81
2023/04/04 05:24:54;;;;;;;3.65;2.55;;;;;;;-0.76;78.71;102867.94;5095206;28;20024;-81
2023/04/04 05:27:19;;;;;;;2.92;2.30;;;;;;;-0.77;78.33;102867.06;5092756;28;20063;-81
2023/04/04 05:29:46;;;;;;;3.60;2.40;;;;;;;-0.78;78.29;102865.31;5094350;28;20024;-81
2023/04/04 05:32:11;;;;;;;3.20;2.38;;;;;;;-0.78;78.45;102870.41;5095498;28;20426;-81
2023/04/04 05:34:36;;;;;;;2.70;2.17;;;;;;;-0.79;79.05;102868.63;5094303;28;20024;-81
2023/04/04 05:37:04;;;;;;;3.47;2.20;;;;;;;-0.82;79.10;102866.78;5095437;28;20024;-81
2023/04/04 05:39:30;;;;;;;3.80;2.10;;;;;;;-0.80;79.08;102872.88;5094821;28;20031;-81
2023/04/04 05:42:01;;;;;;;2.72;2.10;;;;;;;-0.79;79.04;102874.59;5094378;28;20024;-81
2023/04/04 05:44:26;;;;;;;3.70;2.17;;;;;;;-0.82;78.55;102866.78;5094585;28;20498;-81
2023/04/04 05:46:51;;;;;;;4.03;2.20;;;;;;;-0.75;78.50;102880.81;5095057;28;20056;-81
2023/04/04 05:49:16;;;;;;;2.85;2.17;;;;;;;-0.73;78.73;102881.75;5094342;28;20040;-81
2023/04/04 05:51:42;;;;;;;3.30;2.17;;;;;;;-0.70;78.98;102881.09;5094452;28;20491;-81
2023/04/04 05:54:07;;;;;;;4.45;2.53;;;;;;;-0.71;78.72;102885.31;5094782;28;20086;-81
2023/04/04 05:56:33;;;;;;;2.83;2.30;;;;;;;-0.70;78.61;102884.53;5093537;28;20023;-81
2023/04/04 05:59:01;;;;;;;3.38;2.25;;;;;;;-0.70;78.52;102883.66;5094570;28;20060;-81
2023/04/04 06:01:28;;;;;;;2.95;2.20;;;;;;;-0.66;78.71;102883.03;5093609;28;20032;-80
2023/04/04 06:03:54;;;;;;;2.17;1.98;;;;;;;-0.62;79.09;102885.88;5093682;28;20031;-81
2023/04/04 06:06:20;;;;;;;3.45;2.20;;;;;;;-0.66;78.95;102873.75;5094367;28;20464;-81
2023/04/04 06:08:45;;;;;;;5.55;2.38;;;;;;;-0.60;80.19;102883.44;5094455;28;20036;-82
2023/04/04 06:11:10;;;;;;;3.20;2.25;;;;;;;-0.54;79.29;102886.38;5092961;28;20044;-81
2023/04/04 06:13:42;;;;;;;4.15;2.60;;;;;;;-0.52;81.18;102887.34;5093126;28;20028;-81
2023/04/04 06:16:07;;;;;;;7.03;3.88;;;;;;;-0.50;81.51;102884.91;5094621;28;20024;-81
2023/04/04 06:18:32;;;;;;;10.10;4.05;;;;;;;-0.43;81.81;102893.81;5093373;28;20069;-81
2023/04/04 06:21:00;;;;;;;10.82;5.00;;;;;;;-0.39;80.35;102883.03;5094337;28;20020;-81
2023/04/04 06:23:26;;;;;;;9.45;4.65;;;;;;;-0.33;80.74;102886.84;5093545;28;20479;-81
2023/04/04 06:25:52;;;;;;;11.30;5.20;;;;;;;-0.25;80.04;102884.78;5094097;28;20031;-81
2023/04/04 06:28:17;;;;;;;11.27;4.90;;;;;;;-0.18;80.66;102888.59;5094439;28;20056;-81
2023/04/04 06:30:43;;;;;;;12.02;5.07;;;;;;;-0.14;79.29;102892.22;5093356;28;20487;-80
2023/04/04 06:33:08;;;;;;;11.65;5.20;;;;;;;-0.08;78.77;102893.50;5094381;28;20031;-81
2023/04/04 06:35:34;;;;;;;14.70;5.82;;;;;;;0.01;77.76;102900.81;5094021;28;20050;-82
2023/04/04 06:37:59;;;;;;;13.73;5.50;;;;;;;0.07;77.90;102906.31;5093168;28;20376;-83
2023/04/04 06:40:24;;;;;;;13.07;5.70;;;;;;;0.12;77.43;102897.25;5093069;28;20028;-82
2023/04/04 06:42:56;;;;;;;15.35;5.50;;;;;;;0.22;77.75;102908.91;5093076;28;20459;-82
2023/04/04 06:45:22;;;;;;;12.73;5.78;;;;;;;0.28;77.39;102904.16;5092959;28;20027;-82
2023/04/04 06:47:48;;;;;;;10.68;5.28;;;;;;;0.38;78.09;102909.84;5094138;28;20077;-82
2023/04/04 06:50:14;;;;;;;11.35;5.80;;;;;;;0.46;77.57;102906.94;5093423;28;20052;-82
2023/04/04 06:52:39;;;;;;;11.02;5.40;;;;;;;0.52;77.52;102903.00;5092139;28;20109;-82
2023/04/04 06:55:06;;;;;;;10.23;5.15;;;;;;;0.61;76.61;102914.66;5093311;28;20498;-82
2023/04/04 06:57:34;;;;;;;12.88;5.03;;;;;;;0.64;76.27;102897.72;5093658;28;20349;-83
2023/04/04 06:59:59;;;;;;;10.80;5.22;;;;;;;0.98;75.61;102902.22;5093554;28;20107;-82
2023/04/04 07:02:25;;;;;;;10.00;5.25;;;;;;;2.95;71.35;102893.03;5093643;28;20203;-83
2023/04/04 07:04:51;;;;;;;10.95;4.72;;;;;;;5.82;67.58;102907.91;5092146;28;20028;-82
2023/04/04 07:07:16;;;;;;;10.38;4.65;;;;;;;8.45;62.31;102895.66;5092406;28;20024;-82
2023/04/04 07:09:44;;;;;;;11.18;5.00;;;;;;;10.54;44.88;102895.97;5093363;28;20047;-82
2023/04/04 07:12:09;;;;;;;8.98;4.50;;;;;;;11.42;47.27;102903.47;5092907;28;20540;-82
2023/04/04 07:14:34;;;;;;;9.55;4.88;;;;;;;11.56;40.27;102910.56;5092030;28;20181;-82
2023/04/04 07:17:00;;;;;;;10.95;5.13;;;;;;;11.35;41.23;102905.94;5093377;28;20419;-83
2023/04/04 07:19:27;;;;;;;8.85;4.63;;;;;;;10.23;42.47;102911.84;5093008;28;20099;-82
2023/04/04 07:21:56;;;;;;;11.60;5.05;;;;;;;7.86;46.30;102912.16;5092389;28;20032;-82
2023/04/04 07:24:21;;;;;;;9.15;4.70;;;;;;;6.85;49.71;102909.84;5092612;28;20028;-82
2023/04/04 07:26:47;;;;;;;12.33;5.13;;;;;;;5.56;52.91;102910.38;5092499;28;20464;-82
2023/04/04 07:29:12;;;;;;;10.65;5.20;;;;;;;4.73;56.06;102906.19;5093131;28;20476;-82
2023/04/04 07:31:38;;;;;;;8.70;4.90;;;;;;;4.09;58.37;102906.88;5092856;28;20460;-82
2023/04/04 07:34:06;;;;;;;12.98;5.60;;;;;;;3.62;59.80;102894.50;5091379;28;20114;-82
2023/04/04 07:36:32;;;;;;;10.85;5.40;;;;;;;3.24;62.43;102899.56;5092185;28;20020;-82
2023/04/04 07:38:57;;;;;;;11.80;5.65;;;;;;;3.17;62.69;102897.50;5093221;28;20038;-83
2023/04/04 07:41:22;;;;;;;11.82;5.50;;;;;;;3.09;63.13;102896.25;5091775;28;20491;-83
2023/04/04 07:43:48;;;;;;;10.30;5.20;;;;;;;3.13;64.06;102904.97;5092608;28;20016;-82
2023/04/04 07:46:14;;;;;;;10.23;5.57;;;;;;;3.06;63.72;102904.69;5092804;28;20381;-82
2023/04/04 07:48:39;;;;;;;11.88;5.60;;;;;;;2.99;62.89;102899.19;5091544;28;20048;-82
2023/04/04 07:51:04;;;;;;;11.45;5.45;;;;;;;3.01;64.15;102895.00;5092401;28;20028;-82
2023/04/04 07:53:30;;;;;;;12.27;5.22;;;;;;;3.04;62.40;102900.28;5092236;28;20061;-82
2023/04/04 07:55:55;;;;;;;10.80;5.25;;;;;;;3.07;62.55;102893.63;5092281;28;20032;-82
2023/04/04 07:58:21;;;;;;;9.02;4.88;;;;;;;3.17;62.88;102902.63;5092331;28;20471;-82
2023/04/04 08:00:46;;;;;;;15.93;5.88;;;;;;;3.20;62.28;102905.34;5092516;28;20017;-81
2023/04/04 08:03:12;;;;;;;13.90;5.68;;;;;;;3.22;63.05;102902.84;5091738;28;20016;-82
2023/04/04 08:05:37;;;;;;;10.25;5.18;;;;;;;3.23;63.95;102902.94;5092586;28;20077;-82
2023/04/04 08:08:02;;;;;;;9.35;5.13;;;;;;;3.36;63.27;102906.97;5092506;28;20130;-82
2023/04/04 08:10:27;;;;;;;12.57;5.13;;;;;;;3.46;59.31;102907.41;5091558;28;20043;-82
2023/04/04 08:12:53;;;;;;;11.18;4.88;;;;;;;3.54;60.07;102912.09;5092221;28;20016;-82
2023/04/04 08:15:18;;;;;;;10.27;4.70;;;;;;;3.64;60.35;102902.25;5092634;28;20024;-82
2023/04/04 08:17:46;;;;;;;10.15;4.68;;;;;;;3.71;61.23;102899.19;5090896;28;20062;-82
2023/04/04 08:20:11;;;;;;;11.07;5.40;;;;;;;3.77;59.81;102907.16;5092347;28;20042;-82
2023/04/04 08:22:38;;;;;;;11.98;4.95;;;;;;;3.86;60.42;102910.13;5092422;28;20046;-82
2023/04/04 08:25:04;;;;;;;;;;;;;;;4.00;57.41;102910.75;5092236;28;20017;-82
2023/04/04 08:27:30;;;;;;;10.97;4.10;;;;;;;4.06;55.07;102897.31;5092322;28;20275;-82
2023/04/04 08:29:55;;;;;;;9.68;4.57;;;;;;;4.10;55.89;102909.50;5092483;28;20544;-82
2023/04/04 08:32:21;;;;;;;11.65;4.95;;;;;;;4.20;57.92;102899.63;5091589;28;20110;-82
2023/04/04 08:34:46;;;;;;;10.73;4.65;;;;;;;4.32;58.13;102908.78;5092334;28;20431;-82
2023/04/04 08:37:12;;;;;;;8.15;3.95;;;;;;;4.46;54.58;102898.19;5091333;28;20028;-82
2023/04/04 08:39:37;;;;;;;8.25;3.70;;;;;;;4.55;54.11;102893.47;5092312;28;20016;-82
2023/04/04 08:42:04;;;;;;;7.75;4.15;;;;;;;4.70;55.75;102884.59;5091742;28;20094;-82
2023/04/04 08:44:31;;;;;;;8.57;3.60;;;;;;;4.84;56.61;102886.06;5090978;28;20074;-82
2023/04/04 08:46:58;;;;;;;;;;;;;;;5.05;56.40;102886.09;5092748;28;20050;-82
2023/04/04 08:49:26;;;;;;;6.38;3.25;;;;;;;5.31;55.42;102882.78;5091619;28;19916;-81
2023/04/04 08:51:55;;;;;;;6.18;3.20;;;;;;;5.47;52.99;102876.53;5091277;28;20460;-81
2023/04/04 08:54:21;;;;;;;6.97;3.50;;;;;;;5.60;51.31;102886.50;5092180;28;20028;-83
2023/04/04 08:56:47;;;;;;;7.43;3.13;;;;;;;5.71;51.96;102884.31;5091693;28;20103;-82
2023/04/04 08:59:14;;;;;;;4.95;2.90;;;;;;;5.78;50.74;102888.91;5091453;28;20027;-82
2023/04/04 09:01:39;;;;;;;6.43;3.00;;;;;;;5.77;47.79;102879.41;5091559;28;20024;-83
2023/04/04 09:04:05;;;;;;;6.40;3.00;;;;;;;5.64;49.50;102882.34;5095018;28;20051;-82
2023/04/04 09:06:34;;;;;;;9.30;3.60;;;;;;;5.52;48.04;102885.31;5094377;28;20021;-81
2023/04/04 09:09:00;;;;;;;8.00;3.47;;;;;;;5.60;48.60;102886.50;5095662;28;20020;-82
2023/04/04 09:11:30;;;;;;;6.23;2.80;;;;;;;5.74;50.62;102883.56;5095618;28;20032;-82
2023/04/04 09:13:57;;;;;;;8.65;3.47;;;;;;;5.77;48.45;102894.88;5094960;28;20028;-83
2023/04/04 09:16:22;;;;;;;7.05;3.20;;;;;;;5.72;49.16;102886.06;5095119;28;20024;-82
2023/04/04 09:18:48;;;;;;;8.10;3.40;;;;;;;5.75;50.01;102882.72;5095390;28;20487;-82
2023/04/04 09:21:13;;;;;;;8.15;3.63;;;;;;;5.91;48.36;102889.34;5094867;28;20028;-82
2023/04/04 09:23:39;;;;;;;9.25;3.63;;;;;;;5.89;47.71;102894.44;5095122;28;20338;-82
2023/04/04 09:26:05;;;;;;;8.90;3.75;;;;;;;5.85;47.70;102887.44;5095459;28;20036;-82
2023/04/04 09:28:31;;;;;;;7.77;3.33;;;;;;;5.99;48.27;102891.41;5094091;28;20035;-82
2023/04/04 09:30:59;;;;;;;7.70;3.08;;;;;;;6.12;47.77;102882.44;5095168;28;20020;-83
2023/04/04 09:33:25;;;;;;;8.32;3.00;;;;;;;6.06;45.69;102878.75;5094442;28;20101;-82
2023/04/04 09:35:54;;;;;;;9.33;3.23;;;;;;;5.84;45.40;102883.09;5094882;28;20028;-82
2023/04/04 09:38:22;;;;;;;6.35;3.20;;;;;;;5.95;45.81;102874.06;5094832;28;20027;-82
2023/04/04 09:40:47;;;;;;;8.63;3.30;;;;;;;6.00;46.01;102884.56;5094535;28;20016;-82
2023/04/04 09:43:13;;;;;;;9.67;3.33;;;;;;;6.01;45.59;102883.75;5095165;28;20082;-82
2023/04/04 09:45:40;;;;;;;7.43;3.28;;;;;;;6.07;44.57;102883.09;5094592;28;20023;-82
2023/04/04 09:48:09;;;;;;;6.47;2.97;;;;;;;6.26;46.93;102879.44;5093927;28;20078;-82
2023/04/04 09:50:35;;;;;;;7.50;3.08;;;;;;;6.38;44.55;102884.19;5093972;28;20060;-82
2023/04/04 09:53:00;;;;;;;6.45;2.90;;;;;;;6.43;44.92;102878.34;5095058;28;20448;-83
2023/04/04 09:55:33;;;;;;;6.95;3.17;;;;;;;6.50;45.04;102874.28;5093912;28;20114;-82
2023/04/04 09:58:10;;;;;;;7.40;3.03;;;;;;;6.45;44.22;102876.72;5094512;28;20024;-82
2023/04/04 10:00:40;;;;;;;6.30;2.90;;;;;;;6.63;47.10;102870.41;5094641;28;20434;-82
2023/04/04 10:03:06;;;;;;;4.82;2.90;;;;;;;6.67;46.19;102868.81;5094100;28;20031;-82
2023/04/04 10:05:32;;;;;;;9.00;3.33;;;;;;;6.56;44.59;102859.00;5094703;28;20486;-83
2023/04/04 10:07:58;;;;;;;7.57;3.03;;;;;;;6.73;46.39;102863.88;5094204;28;20016;-82
2023/04/04 10:10:25;;;;;;;8.82;3.42;;;;;;;6.80;43.65;102863.22;5093399;28;20039;-80
2023/04/04 10:12:51;;;;;;;6.57;3.20;;;;;;;6.86;46.42;102858.28;5094384;28;20069;-82
2023/04/04 10:15:16;;;;;;;6.63;2.70;;;;;;;7.11;45.56;102859.03;5094299;28;20024;-82
2023/04/04 10:17:44;;;;;;;9.43;3.50;;;;;;;7.18;43.05;102861.00;5093551;28;20067;-82
2023/04/04 10:20:12;;;;;;;5.93;3.15;;;;;;;7.40;45.57;102859.94;5094399;28;20012;-82
2023/04/04 10:22:39;;;;;;;7.20;3.33;;;;;;;7.30;44.42;102863.09;5093079;28;20107;-81
2023/04/04 10:25:06;;;;;;;8.43;3.28;;;;;;;7.00;43.05;102863.88;5094167;28;20379;-82
2023/04/04 10:27:31;;;;;;;;;;;;;;;6.69;43.94;102859.41;5094095;28;20036;-82
2023/04/04 10:29:57;;;;;;;8.83;3.53;;;;;;;6.70;43.61;102850.84;5093472;28;19922;-82
2023/04/04 10:32:30;;;;;;;8.18;3.53;;;;;;;6.88;45.36;102851.44;5093819;28;20107;-82
2023/04/04 10:35:01;;;;;;;6.57;3.15;;;;;;;7.11;45.89;102852.19;5081642;28;20495;-82
2023/04/04 10:37:33;;;;;;;7.03;3.10;;;;;;;7.16;43.28;102857.50;5092804;28;20027;-82
2023/04/04 10:40:06;;;;;;;5.95;3.40;;;;;;;7.21;45.20;102853.34;5093433;28;20096;-81
2023/04/04 10:42:37;;;;;;;7.07;3.10;;;;;;;7.39;43.61;102854.75;5093435;28;20464;-82
2023/04/04 10:45:09;;;;;;;6.90;3.20;;;;;;;7.42;43.61;102841.94;5092909;28;20027;-81
2023/04/04 10:47:35;;;;;;;6.28;3.00;;;;;;;7.56;45.85;102832.00;5093470;28;20038;-80
2023/04/04 10:50:03;;;;;;;7.50;3.30;;;;;;;7.62;43.02;102836.47;5093184;28;20051;-82
2023/04/04 10:52:30;;;;;;;8.40;3.13;;;;;;;7.49;45.91;102830.94;5092718;28;20036;-83
2023/04/04 10:55:00;;;;;;;7.20;3.05;;;;;;;7.79;45.27;102830.06;5093283;28;20029;-82
2023/04/04 10:57:27;;;;;;;6.07;3.15;;;;;;;7.78;42.50;102833.47;5093245;28;20032;-83
2023/04/04 11:00:06;;;;;;;8.23;3.20;;;;;;;7.53;42.12;102824.16;5091862;28;20016;-82
2023/04/04 11:02:45;;;;;;;9.10;3.15;;;;;;;7.50;43.18;102822.38;5092826;28;20036;-82
2023/04/04 11:05:14;;;;;;;5.63;2.95;;;;;;;7.61;44.71;102824.38;5092741;28;20020;-82
2023/04/04 11:07:39;;;;;;;7.20;3.10;;;;;;;7.87;43.58;102822.53;5092628;28;20553;-83
2023/04/04 11:10:20;;;;;;;7.23;3.00;;;;;;;7.89;42.26;102813.97;5093120;28;20063;-82
2023/04/04 11:12:46;;;;;;;8.18;3.28;;;;;;;8.11;42.89;102803.34;5092667;28;20153;-82
2023/04/04 11:15:15;;;;;;;7.82;3.40;;;;;;;7.99;41.55;102809.06;5093306;28;20123;-83
2023/04/04 11:17:58;;;;;;;8.52;3.20;;;;;;;8.17;40.41;102801.78;5092743;28;20464;-82
2023/04/04 11:20:23;;;;;;;6.38;3.10;;;;;;;8.19;40.67;102800.13;5092092;28;20102;-83
2023/04/04 11:22:50;;;;;;;7.80;3.50;;;;;;;7.83;41.71;102803.47;5093191;28;20158;-82
2023/04/04 11:25:38;;;;;;;9.00;3.80;;;;;;;7.85;42.30;102800.91;5095493;28;20096;-83
2023/04/04 11:28:34;;;;;;;7.57;3.10;;;;;;;8.08;41.67;102798.97;5092788;28;20039;-82
2023/04/04 11:31:18;;;;;;;6.30;3.10;;;;;;;8.31;42.12;102796.13;5093172;28;20100;-81